< < Back
Terminal Aerodrome Forecast


Current Version              Previous Versions:   1  2  3  4  5  6  7  8  9  

Terminal Aerodrome Forecast

588
FTUS42 KGSP 010500
TAFAND
TAF
KAND 010538Z 0106/0206 00000KT P6SM SKC
     FM010800 00000KT 5SM BR FEW250
     FM011400 23005KT P6SM FEW045=



Latest METAR

576
SAUS70 KWBC 012200 RRX
MTRAND
METAR KAND 012156Z AUTO 20005KT 10SM CLR 28/13 A2998 RMK AO2 SLP143
T02830133


USA.gov is the U.S. government's official web portal to all federal, state and local government web resources and services.